createdAt,value
2018-06-15T00:00:58.283Z,16.05
2018-06-15T00:03:29.951Z,16.06
2018-06-15T00:06:00.855Z,16.04
2018-06-15T00:08:32.828Z,15.99
2018-06-15T00:11:03.968Z,15.93
2018-06-15T00:13:35.068Z,15.89
2018-06-15T00:16:06.267Z,15.86
2018-06-15T00:18:38.908Z,15.87
2018-06-15T00:21:09.857Z,15.78
2018-06-15T00:23:40.811Z,15.73
2018-06-15T00:26:11.861Z,15.66
2018-06-15T00:28:43.754Z,15.63
2018-06-15T00:31:14.807Z,15.58
2018-06-15T00:33:47.458Z,15.56
2018-06-15T00:36:19.210Z,15.61
2018-06-15T00:38:50.497Z,15.63
2018-06-15T00:41:21.881Z,15.61
2018-06-15T00:43:53.760Z,15.62
2018-06-15T00:46:24.945Z,15.62
2018-06-15T00:48:56.139Z,15.63
2018-06-15T00:51:28.054Z,15.59
2018-06-15T00:53:59.441Z,15.60
2018-06-15T00:56:31.042Z,15.55
2018-06-15T00:59:02.866Z,15.52
2018-06-15T01:01:33.918Z,15.48
2018-06-15T01:04:05.958Z,15.43
2018-06-15T01:06:37.541Z,15.40
2018-06-15T01:09:09.975Z,15.37
2018-06-15T01:11:40.785Z,15.36
2018-06-15T01:14:11.698Z,15.38
2018-06-15T01:16:44.018Z,15.43
2018-06-15T01:19:15.656Z,15.45
2018-06-15T01:21:47.327Z,15.44
2018-06-15T01:24:18.382Z,15.37
2018-06-15T01:26:49.414Z,15.24
2018-06-15T01:29:20.703Z,15.20
2018-06-15T01:31:51.587Z,15.07
2018-06-15T01:34:22.577Z,15.03
2018-06-15T01:36:54.370Z,15.02
2018-06-15T01:39:26.610Z,15.00
2018-06-15T01:41:57.406Z,14.95
2018-06-15T01:44:27.830Z,14.94
2018-06-15T01:46:58.651Z,14.91
2018-06-15T01:49:30.111Z,14.83
2018-06-15T01:52:01.109Z,14.76
2018-06-15T01:54:32.554Z,14.73
2018-06-15T01:57:05.591Z,14.82
2018-06-15T01:59:36.907Z,14.94
2018-06-15T02:02:08.123Z,14.96
2018-06-15T02:04:38.889Z,14.97
2018-06-15T02:07:09.950Z,15.03
2018-06-15T02:09:41.928Z,15.03
2018-06-15T02:12:13.526Z,15.03
2018-06-15T02:14:45.065Z,15.02
2018-06-15T02:17:16.361Z,15.00
2018-06-15T02:19:47.449Z,15.04
2018-06-15T02:22:18.588Z,15.03
2018-06-15T02:24:49.733Z,15.04
2018-06-15T02:27:20.177Z,15.06
2018-06-15T02:29:51.628Z,15.06
2018-06-15T02:32:23.123Z,15.04
2018-06-15T02:34:54.317Z,15.04
2018-06-15T02:37:25.297Z,15.07
2018-06-15T02:39:56.430Z,15.14
2018-06-15T02:42:28.272Z,15.18
2018-06-15T02:45:00.187Z,15.21
2018-06-15T02:47:31.529Z,15.22
2018-06-15T02:50:03.949Z,15.25
2018-06-15T02:52:35.825Z,15.27
2018-06-15T02:55:07.065Z,15.27
2018-06-15T02:57:38.393Z,15.26
2018-06-15T03:00:09.465Z,15.23
2018-06-15T03:02:40.651Z,15.29
2018-06-15T03:05:12.354Z,15.30
2018-06-15T03:07:43.484Z,15.32
2018-06-15T03:10:14.700Z,15.35
2018-06-15T03:12:46.704Z,15.33
2018-06-15T03:15:18.732Z,15.33
2018-06-15T03:17:49.868Z,15.36
2018-06-15T03:20:20.592Z,15.38
2018-06-15T03:22:52.009Z,15.41
2018-06-15T03:25:24.039Z,15.37
2018-06-15T03:27:55.340Z,15.31
2018-06-15T03:30:27.837Z,15.29
2018-06-15T03:32:59.854Z,15.29
2018-06-15T03:35:31.376Z,15.33
2018-06-15T03:38:02.594Z,15.37
2018-06-15T03:40:33.784Z,15.40
2018-06-15T03:43:05.067Z,15.40
2018-06-15T03:45:36.345Z,15.52
2018-06-15T03:48:07.556Z,15.53
2018-06-15T03:50:39.624Z,15.52
2018-06-15T03:53:10.881Z,15.51
2018-06-15T03:55:42.953Z,15.51
2018-06-15T03:58:14.179Z,15.57
2018-06-15T04:00:45.991Z,15.61
2018-06-15T04:03:17.223Z,15.67
2018-06-15T04:05:48.921Z,15.72
2018-06-15T04:08:20.283Z,15.81
2018-06-15T04:10:51.611Z,15.82
2018-06-15T04:13:23.702Z,15.87
2018-06-15T04:15:55.595Z,15.89
2018-06-15T04:18:26.758Z,15.96
2018-06-15T04:20:58.087Z,16.03
2018-06-15T04:23:29.598Z,16.08
2018-06-15T04:26:01.051Z,16.17
2018-06-15T04:28:32.098Z,16.28
2018-06-15T04:31:03.845Z,16.38
2018-06-15T04:33:36.035Z,16.48
2018-06-15T04:36:07.262Z,16.56
2018-06-15T04:38:38.322Z,16.67
2018-06-15T04:41:09.488Z,16.80
2018-06-15T04:43:40.821Z,16.92
2018-06-15T04:46:12.472Z,16.97
2018-06-15T04:48:44.711Z,17.05
2018-06-15T04:51:15.942Z,17.13
2018-06-15T04:53:47.159Z,17.19
2018-06-15T04:56:18.469Z,17.28
2018-06-15T04:58:50.752Z,17.38
2018-06-15T05:01:22.313Z,17.52
2018-06-15T05:03:53.265Z,17.64
2018-06-15T05:06:24.277Z,17.76
2018-06-15T05:08:56.226Z,17.86
2018-06-15T05:11:27.799Z,17.98
2018-06-15T05:14:00.253Z,18.12
2018-06-15T05:16:31.755Z,18.20
2018-06-15T05:19:03.374Z,18.28
2018-06-15T05:21:34.757Z,18.38
2018-06-15T05:24:06.253Z,18.60
2018-06-15T05:26:37.589Z,18.70
2018-06-15T05:29:09.027Z,18.82
2018-06-15T05:31:40.732Z,18.92
2018-06-15T05:34:11.781Z,19.04
2018-06-15T05:36:42.673Z,19.19
2018-06-15T05:39:14.333Z,19.28
2018-06-15T05:41:45.443Z,19.41
2018-06-15T05:44:17.245Z,19.48
2018-06-15T05:46:48.790Z,19.58
2018-06-15T05:49:20.765Z,19.69
2018-06-15T05:51:51.756Z,19.79
2018-06-15T05:54:22.606Z,19.97
2018-06-15T05:56:53.804Z,20.10
2018-06-15T05:59:24.764Z,20.24
2018-06-15T06:01:56.104Z,20.34
2018-06-15T06:04:26.930Z,20.45
2018-06-15T06:06:59.583Z,20.54
2018-06-15T06:09:30.862Z,20.69
2018-06-15T06:12:01.978Z,20.84
2018-06-15T06:14:33.209Z,20.93
2018-06-15T06:17:04.437Z,21.10
2018-06-15T06:19:36.012Z,21.27
2018-06-15T06:22:07.993Z,22.18
2018-06-15T06:24:40.881Z,23.42
2018-06-15T06:27:12.861Z,24.09
2018-06-15T06:29:45.522Z,24.42
2018-06-15T06:32:17.058Z,24.94
2018-06-15T06:34:48.790Z,25.19
2018-06-15T06:37:27.374Z,25.71
2018-06-15T06:39:59.916Z,25.65
2018-06-15T06:42:30.635Z,25.99
2018-06-15T06:45:02.783Z,26.16
2018-06-15T06:47:35.065Z,25.99
2018-06-15T06:50:06.864Z,25.55
2018-06-15T06:52:39.090Z,26.03
2018-06-15T06:55:10.681Z,26.54
2018-06-15T06:57:42.081Z,26.28
2018-06-15T07:00:14.422Z,26.42
2018-06-15T07:02:45.591Z,26.91
2018-06-15T07:05:16.476Z,27.14
2018-06-15T07:07:48.530Z,27.54
2018-06-15T07:10:20.796Z,27.56
2018-06-15T07:12:51.861Z,27.69
2018-06-15T07:15:22.170Z,27.77
2018-06-15T07:17:54.759Z,27.95
2018-06-15T07:20:25.621Z,27.62
2018-06-15T07:22:57.369Z,27.14
2018-06-15T07:25:29.771Z,26.04
2018-06-15T07:28:01.861Z,25.80
2018-06-15T07:30:33.678Z,25.55
2018-06-15T07:33:06.522Z,24.99
2018-06-15T07:35:38.814Z,24.61
2018-06-15T07:38:10.055Z,24.28
2018-06-15T07:40:41.385Z,24.65
2018-06-15T07:43:12.629Z,26.19
2018-06-15T07:45:44.130Z,26.39
2018-06-15T07:48:15.864Z,27.77
2018-06-15T07:50:47.457Z,27.85
2018-06-15T07:53:20.143Z,27.04
2018-06-15T07:55:51.740Z,27.12
2018-06-15T07:58:24.302Z,26.60
2018-06-15T08:00:55.631Z,26.52
2018-06-15T08:03:27.690Z,27.73
2018-06-15T08:05:59.094Z,28.15
2018-06-15T08:08:30.346Z,27.09
2018-06-15T08:11:01.751Z,26.24
2018-06-15T08:13:33.802Z,26.74
2018-06-15T08:16:04.405Z,28.32
2018-06-15T08:18:35.527Z,27.83
2018-06-15T08:21:07.344Z,26.63
2018-06-15T08:23:39.400Z,26.02
2018-06-15T08:26:10.448Z,25.90
2018-06-15T08:28:43.227Z,25.72
2018-06-15T08:31:15.078Z,25.94
2018-06-15T08:33:46.973Z,25.91
2018-06-15T08:36:18.263Z,26.18
2018-06-15T08:38:49.224Z,26.81
2018-06-15T08:41:20.629Z,27.48
2018-06-15T08:43:52.835Z,27.76
2018-06-15T08:46:24.923Z,26.82
2018-06-15T08:48:56.219Z,26.61
2018-06-15T08:51:28.601Z,26.65
2018-06-15T08:54:00.936Z,26.17
2018-06-15T08:56:33.441Z,26.05
2018-06-15T08:59:05.389Z,26.13
2018-06-15T09:01:36.529Z,26.02
2018-06-15T09:04:07.945Z,26.15
2018-06-15T09:06:39.310Z,26.21
2018-06-15T09:09:10.637Z,25.30
2018-06-15T09:11:42.256Z,25.59
2018-06-15T09:14:13.579Z,25.98
2018-06-15T09:16:45.912Z,26.13
2018-06-15T09:19:17.711Z,26.67
2018-06-15T09:21:49.020Z,26.80
2018-06-15T09:24:20.868Z,27.01
2018-06-15T09:26:51.845Z,27.26
2018-06-15T09:29:24.342Z,28.25
2018-06-15T09:31:57.226Z,28.26
2018-06-15T09:34:28.721Z,28.17
2018-06-15T09:37:01.307Z,27.53
2018-06-15T09:39:33.580Z,27.30
2018-06-15T09:42:04.894Z,27.04
2018-06-15T09:44:36.281Z,27.31
2018-06-15T09:47:07.829Z,27.59
2018-06-15T09:49:39.928Z,27.43
2018-06-15T09:52:11.074Z,27.19
2018-06-15T09:54:42.575Z,26.91
2018-06-15T09:57:14.078Z,27.82
2018-06-15T09:59:45.821Z,28.67
2018-06-15T10:02:17.003Z,28.76
2018-06-15T10:04:49.047Z,29.51
2018-06-15T10:07:22.069Z,28.75
2018-06-15T10:09:54.403Z,27.96
2018-06-15T10:12:27.427Z,27.21
2018-06-15T10:14:59.492Z,27.08
2018-06-15T10:17:32.778Z,27.22
2018-06-15T10:20:04.639Z,27.94
2018-06-15T10:22:38.555Z,28.04
2018-06-15T10:25:11.265Z,28.81
2018-06-15T10:27:43.433Z,29.76
2018-06-15T10:30:15.519Z,29.61
2018-06-15T10:32:48.879Z,29.07
2018-06-15T10:35:21.059Z,28.76
2018-06-15T10:37:53.136Z,28.17
2018-06-15T10:40:25.210Z,27.96
2018-06-15T10:42:56.750Z,27.91
2018-06-15T10:45:28.096Z,27.84
2018-06-15T10:48:00.672Z,28.04
2018-06-15T10:50:32.422Z,28.41
2018-06-15T10:53:04.337Z,28.15
2018-06-15T10:55:35.704Z,28.01
2018-06-15T10:58:07.065Z,27.84
2018-06-15T11:00:38.353Z,27.88
2018-06-15T11:03:10.919Z,28.19
2018-06-15T11:05:42.432Z,28.05
2018-06-15T11:08:13.900Z,27.69
2018-06-15T11:10:45.959Z,27.51
2018-06-15T11:13:17.317Z,27.23
2018-06-15T11:15:48.548Z,26.87
2018-06-15T11:18:20.628Z,27.21
2018-06-15T11:20:52.800Z,27.41
2018-06-15T11:23:23.849Z,27.95
2018-06-15T11:25:54.956Z,28.27
2018-06-15T11:28:27.906Z,28.58
2018-06-15T11:31:00.718Z,28.78
2018-06-15T11:33:33.848Z,28.71
2018-06-15T11:36:05.271Z,28.68
2018-06-15T11:38:37.814Z,29.21
2018-06-15T11:41:11.895Z,30.03
2018-06-15T11:43:44.229Z,30.13
2018-06-15T11:46:15.804Z,30.33
2018-06-15T11:48:48.863Z,30.50
2018-06-15T11:51:20.287Z,31.07
2018-06-15T11:53:51.553Z,31.17
2018-06-15T11:56:22.941Z,30.25
2018-06-15T11:58:55.123Z,30.04
2018-06-15T12:01:27.057Z,29.91
2018-06-15T12:03:58.323Z,30.11
2018-06-15T12:06:30.466Z,30.44
2018-06-15T12:09:01.947Z,31.20
2018-06-15T12:11:38.015Z,31.42
2018-06-15T12:14:09.680Z,32.00
2018-06-15T12:16:42.312Z,32.14
2018-06-15T12:19:15.930Z,31.45
2018-06-15T12:21:49.876Z,30.72
2018-06-15T12:24:22.973Z,29.92
2018-06-15T12:26:56.801Z,29.43
2018-06-15T12:29:28.433Z,29.89
2018-06-15T12:31:59.904Z,29.70
2018-06-15T12:34:32.024Z,29.48
2018-06-15T12:37:05.871Z,29.11
2018-06-15T12:39:38.202Z,29.18
2018-06-15T12:42:09.473Z,29.13
2018-06-15T12:44:40.719Z,29.45
2018-06-15T12:47:11.939Z,30.17
2018-06-15T12:49:42.567Z,31.26
2018-06-15T12:52:14.515Z,31.92
2018-06-15T12:54:46.358Z,31.64
2018-06-15T12:57:17.895Z,31.66
2018-06-15T12:59:49.156Z,30.83
2018-06-15T13:02:20.486Z,30.27
2018-06-15T13:04:51.871Z,29.37
2018-06-15T13:07:23.479Z,29.22
2018-06-15T13:09:55.151Z,29.33
2018-06-15T13:12:27.663Z,29.63
2018-06-15T13:14:58.728Z,29.58
2018-06-15T13:17:31.004Z,29.95
2018-06-15T13:20:01.529Z,29.61
2018-06-15T13:22:32.783Z,29.92
2018-06-15T13:25:03.991Z,30.27
2018-06-15T13:27:35.328Z,30.73
2018-06-15T13:30:06.480Z,30.45
2018-06-15T13:32:38.317Z,30.71
2018-06-15T13:35:10.324Z,31.07
2018-06-15T13:37:41.769Z,30.89
2018-06-15T13:40:13.182Z,30.47
2018-06-15T13:42:44.434Z,30.06
2018-06-15T13:45:17.242Z,29.97
2018-06-15T13:47:49.186Z,30.12
2018-06-15T13:50:21.882Z,30.53
2018-06-15T13:52:53.471Z,30.82
2018-06-15T13:55:25.742Z,31.23
2018-06-15T13:57:57.215Z,31.41
2018-06-15T14:00:29.451Z,31.17
2018-06-15T14:03:00.878Z,30.64
2018-06-15T14:05:33.157Z,31.10
2018-06-15T14:08:04.539Z,30.57
2018-06-15T14:10:35.627Z,30.47
2018-06-15T14:13:07.106Z,30.62
2018-06-15T14:15:38.831Z,30.76
2018-06-15T14:18:12.557Z,30.70
2018-06-15T14:20:44.795Z,30.15
2018-06-15T14:23:16.119Z,30.12
2018-06-15T14:25:47.919Z,29.67
2018-06-15T14:28:19.300Z,29.23
2018-06-15T14:30:49.678Z,29.08
2018-06-15T14:33:20.692Z,28.62
2018-06-15T14:35:52.566Z,28.12
2018-06-15T14:38:24.387Z,28.28
2018-06-15T14:40:55.563Z,28.25
2018-06-15T14:43:27.074Z,28.59
2018-06-15T14:45:59.769Z,28.80
2018-06-15T14:48:31.593Z,28.44
2018-06-15T14:51:03.941Z,28.11
2018-06-15T14:53:35.331Z,27.77
2018-06-15T14:56:06.634Z,27.34
2018-06-15T14:58:38.161Z,27.58
2018-06-15T15:01:10.362Z,27.76
2018-06-15T15:03:42.818Z,27.67
2018-06-15T15:06:14.228Z,27.42
2018-06-15T15:08:47.926Z,27.54
2018-06-15T15:11:20.197Z,27.72
2018-06-15T15:13:51.893Z,27.91
2018-06-15T15:16:24.529Z,27.95
2018-06-15T15:19:01.055Z,27.86
2018-06-15T15:21:33.169Z,27.85
2018-06-15T15:24:08.576Z,27.71
2018-06-15T15:26:39.750Z,27.72
2018-06-15T15:29:11.924Z,27.54
2018-06-15T15:31:44.520Z,27.45
2018-06-15T15:34:15.530Z,27.19
2018-06-15T15:36:46.688Z,27.33
2018-06-15T15:39:18.093Z,27.53
2018-06-15T15:41:49.448Z,27.21
2018-06-15T15:44:20.785Z,26.92
2018-06-15T15:46:52.273Z,26.89
2018-06-15T15:49:24.134Z,26.79
2018-06-15T15:51:56.239Z,26.90
2018-06-15T15:54:27.544Z,27.12
2018-06-15T15:57:00.480Z,27.29
2018-06-15T15:59:32.179Z,27.15
2018-06-15T16:02:04.052Z,27.10
2018-06-15T16:04:35.728Z,27.16
2018-06-15T16:07:08.146Z,27.01
2018-06-15T16:09:40.002Z,27.08
2018-06-15T16:12:12.506Z,27.04
2018-06-15T16:14:44.514Z,27.05
2018-06-15T16:17:16.000Z,26.90
2018-06-15T16:19:46.800Z,26.97
2018-06-15T16:22:18.010Z,26.89
2018-06-15T16:24:49.306Z,26.79
2018-06-15T16:27:21.305Z,26.67
2018-06-15T16:29:53.147Z,26.30
2018-06-15T16:32:24.502Z,26.39
2018-06-15T16:34:56.881Z,26.40
2018-06-15T16:37:29.348Z,26.39
2018-06-15T16:40:01.123Z,26.18
2018-06-15T16:42:32.957Z,26.15
2018-06-15T16:45:04.619Z,26.00
2018-06-15T16:47:37.736Z,25.91
2018-06-15T16:50:08.828Z,25.95
2018-06-15T16:52:40.002Z,25.94
2018-06-15T16:55:11.131Z,25.89
2018-06-15T16:57:43.013Z,25.89
2018-06-15T17:00:14.295Z,25.91
2018-06-15T17:02:45.825Z,25.87
2018-06-15T17:05:17.247Z,25.83
2018-06-15T17:07:48.385Z,25.66
2018-06-15T17:10:19.427Z,25.64
2018-06-15T17:12:50.904Z,25.61
2018-06-15T17:15:21.737Z,25.52
2018-06-15T17:17:53.264Z,25.50
2018-06-15T17:20:24.399Z,25.52
2018-06-15T17:22:55.764Z,25.42
2018-06-15T17:25:26.310Z,25.37
2018-06-15T17:27:56.877Z,25.38
2018-06-15T17:30:28.987Z,25.22
2018-06-15T17:33:01.153Z,25.20
2018-06-15T17:38:03.430Z,25.04
2018-06-15T17:40:34.638Z,24.92
2018-06-15T17:43:06.343Z,24.78
2018-06-15T17:45:37.740Z,24.66
2018-06-15T17:48:09.051Z,24.58
2018-06-15T17:50:40.315Z,24.45
2018-06-15T17:53:12.789Z,24.30
2018-06-15T17:55:43.807Z,24.21
2018-06-15T17:58:15.106Z,24.14
2018-06-15T18:00:46.529Z,24.09
2018-06-15T18:03:17.887Z,24.04
2018-06-15T18:05:49.989Z,23.92
2018-06-15T18:08:21.931Z,23.86
2018-06-15T18:10:54.740Z,23.77
2018-06-15T18:13:26.991Z,23.64
2018-06-15T18:15:58.522Z,23.55
2018-06-15T18:18:30.347Z,23.48
2018-06-15T18:21:02.224Z,23.39
2018-06-15T18:23:33.848Z,23.24
2018-06-15T18:26:06.207Z,23.12
2018-06-15T18:28:38.054Z,23.01
2018-06-15T18:31:08.885Z,22.89
2018-06-15T18:33:40.234Z,22.75
2018-06-15T18:36:11.334Z,22.60
2018-06-15T18:38:43.494Z,22.47
2018-06-15T18:41:15.168Z,22.34
2018-06-15T18:43:47.835Z,22.22
2018-06-15T18:46:20.685Z,22.13
2018-06-15T18:48:53.615Z,22.08
2018-06-15T18:51:24.796Z,22.01
2018-06-15T18:53:56.321Z,21.85
2018-06-15T18:56:29.402Z,21.73
2018-06-15T18:59:02.387Z,21.57
2018-06-15T19:01:37.456Z,21.49
2018-06-15T19:04:09.819Z,21.43
2018-06-15T19:06:41.279Z,21.29
2018-06-15T19:09:13.704Z,21.19
2018-06-15T19:11:46.209Z,21.08
2018-06-15T19:14:19.314Z,20.98
2018-06-15T19:16:52.828Z,20.96
2018-06-15T19:19:25.619Z,20.91
2018-06-15T19:21:58.258Z,20.83
2018-06-15T19:24:30.335Z,20.79
2018-06-15T19:27:03.142Z,20.75
2018-06-15T19:29:35.623Z,20.73
2018-06-15T19:32:09.625Z,20.65
2018-06-15T19:34:43.085Z,20.57
2018-06-15T19:37:15.675Z,20.50
2018-06-15T19:39:49.669Z,20.44
2018-06-15T19:42:22.418Z,20.38
2018-06-15T19:44:56.557Z,20.31
2018-06-15T19:47:31.650Z,20.22
2018-06-15T19:50:04.439Z,20.14
2018-06-15T19:52:36.569Z,20.04
2018-06-15T19:55:09.019Z,20.02
2018-06-15T19:57:41.519Z,19.93
2018-06-15T20:00:15.533Z,19.85
2018-06-15T20:02:48.967Z,19.72
2018-06-15T20:05:23.225Z,19.63
2018-06-15T20:07:56.058Z,19.59
2018-06-15T20:10:29.287Z,19.61
2018-06-15T20:13:03.291Z,19.64
2018-06-15T20:15:36.702Z,19.66
2018-06-15T20:18:09.583Z,19.66
2018-06-15T20:20:44.170Z,19.68
2018-06-15T20:23:17.136Z,19.69
2018-06-15T20:25:50.316Z,19.63
2018-06-15T20:28:28.341Z,19.57
2018-06-15T20:31:06.686Z,19.51
2018-06-15T20:33:40.333Z,19.45
2018-06-15T20:36:13.146Z,19.40
2018-06-15T20:38:48.537Z,19.34
2018-06-15T20:41:21.243Z,19.27
2018-06-15T20:43:54.967Z,19.22
2018-06-15T20:46:27.839Z,19.15
2018-06-15T20:49:00.868Z,19.05
2018-06-15T20:51:34.976Z,18.98
2018-06-15T20:54:08.426Z,18.91
2018-06-15T20:56:40.955Z,18.85
2018-06-15T20:59:13.205Z,18.80
2018-06-15T21:01:46.677Z,18.69
2018-06-15T21:04:19.427Z,18.56
2018-06-15T21:06:52.263Z,18.42
2018-06-15T21:09:24.291Z,18.26
2018-06-15T21:11:56.906Z,18.14
2018-06-15T21:14:29.931Z,18.01
2018-06-15T21:17:01.760Z,17.93
2018-06-15T21:19:33.360Z,17.85
2018-06-15T21:22:06.712Z,17.80
2018-06-15T21:24:40.097Z,17.76
2018-06-15T21:27:12.078Z,17.69
2018-06-15T21:29:43.666Z,17.66
2018-06-15T21:32:16.674Z,17.62
2018-06-15T21:34:49.618Z,17.62
2018-06-15T21:37:22.095Z,17.57
2018-06-15T21:39:54.120Z,17.55
2018-06-15T21:42:26.217Z,17.49
2018-06-15T21:44:58.176Z,17.43
2018-06-15T21:47:30.594Z,17.36
2018-06-15T21:50:02.729Z,17.40
2018-06-15T21:52:35.049Z,17.39
2018-06-15T21:55:06.696Z,17.39
2018-06-15T21:57:38.046Z,17.37
2018-06-15T22:00:10.270Z,17.39
2018-06-15T22:02:41.872Z,17.37
2018-06-15T22:05:12.700Z,17.33
2018-06-15T22:07:44.473Z,17.29
2018-06-15T22:10:15.326Z,17.24
2018-06-15T22:12:46.679Z,17.20
2018-06-15T22:15:17.843Z,17.15
2018-06-15T22:17:49.271Z,17.15
2018-06-15T22:20:21.745Z,17.15
2018-06-15T22:22:53.396Z,17.16
2018-06-15T22:25:24.652Z,17.14
2018-06-15T22:27:55.800Z,17.14
2018-06-15T22:30:27.209Z,17.14
2018-06-15T22:32:58.762Z,17.13
2018-06-15T22:35:31.426Z,17.09
2018-06-15T22:38:02.615Z,17.04
2018-06-15T22:40:34.032Z,16.98
2018-06-15T22:43:06.979Z,16.96
2018-06-15T22:45:38.540Z,16.93
2018-06-15T22:48:10.391Z,16.89
2018-06-15T22:50:41.672Z,16.79
2018-06-15T22:53:13.424Z,16.71
2018-06-15T22:55:44.556Z,16.68
2018-06-15T22:58:15.745Z,16.66
2018-06-15T23:00:46.882Z,16.61
2018-06-15T23:03:18.857Z,16.55
2018-06-15T23:05:51.147Z,16.53
2018-06-15T23:08:22.823Z,16.52
2018-06-15T23:10:54.193Z,16.53
2018-06-15T23:13:25.418Z,16.50
2018-06-15T23:15:56.830Z,16.45
2018-06-15T23:18:27.807Z,16.44
2018-06-15T23:20:59.208Z,16.44
2018-06-15T23:23:30.709Z,16.42
2018-06-15T23:26:01.997Z,16.43
2018-06-15T23:28:33.185Z,16.44
2018-06-15T23:31:03.910Z,16.40
2018-06-15T23:33:35.978Z,16.40
2018-06-15T23:36:07.311Z,16.38
2018-06-15T23:38:38.349Z,16.35
2018-06-15T23:41:09.813Z,16.30
2018-06-15T23:43:41.410Z,16.28
2018-06-15T23:46:12.534Z,16.27
2018-06-15T23:48:44.386Z,16.24
2018-06-15T23:51:16.130Z,16.23
2018-06-15T23:53:48.589Z,16.22
2018-06-15T23:56:18.993Z,16.20
2018-06-15T23:58:50.035Z,16.18
